createdAt,value
2018-11-06T00:01:40.374Z,6.70
2018-11-06T00:04:08.928Z,6.70
2018-11-06T00:06:37.469Z,6.70
2018-11-06T00:09:08.036Z,6.80
2018-11-06T00:11:36.594Z,6.70
2018-11-06T00:14:05.709Z,6.70
2018-11-06T00:16:34.278Z,6.70
2018-11-06T00:19:02.834Z,6.70
2018-11-06T00:21:31.390Z,6.70
2018-11-06T00:23:59.924Z,6.70
2018-11-06T00:26:28.479Z,6.60
2018-11-06T00:28:57.018Z,6.60
2018-11-06T00:31:25.582Z,6.60
2018-11-06T00:33:54.105Z,6.60
2018-11-06T00:36:22.661Z,6.50
2018-11-06T00:38:51.196Z,6.40
2018-11-06T00:41:19.780Z,6.40
2018-11-06T00:43:48.325Z,6.40
2018-11-06T00:46:16.873Z,6.30
2018-11-06T00:48:45.420Z,6.40
2018-11-06T00:51:13.996Z,6.40
2018-11-06T00:53:42.558Z,6.40
2018-11-06T00:56:11.117Z,6.40
2018-11-06T00:58:39.657Z,6.20
2018-11-06T01:01:08.240Z,6.20
2018-11-06T01:03:42.196Z,6.30
2018-11-06T01:06:10.774Z,6.30
2018-11-06T01:08:39.317Z,6.30
2018-11-06T01:11:07.895Z,6.20
2018-11-06T01:13:36.477Z,6.20
2018-11-06T01:16:05.428Z,6.30
2018-11-06T01:18:33.961Z,6.30
2018-11-06T01:21:02.518Z,6.30
2018-11-06T01:23:31.057Z,6.20
2018-11-06T01:25:59.617Z,6.00
2018-11-06T01:28:28.166Z,6.10
2018-11-06T01:30:56.734Z,6.20
2018-11-06T01:33:25.293Z,6.30
2018-11-06T01:35:53.833Z,6.30
2018-11-06T01:38:22.397Z,6.30
2018-11-06T01:40:50.925Z,6.30
2018-11-06T01:43:19.489Z,6.40
2018-11-06T01:45:48.035Z,6.40
2018-11-06T01:48:16.589Z,6.40
2018-11-06T01:50:45.129Z,6.40
2018-11-06T01:53:13.701Z,6.40
2018-11-06T01:55:42.221Z,6.40
2018-11-06T01:58:10.778Z,6.40
2018-11-06T02:00:39.341Z,6.40
2018-11-06T02:03:07.905Z,6.40
2018-11-06T02:05:36.442Z,6.40
2018-11-06T02:08:05.281Z,6.40
2018-11-06T02:10:33.809Z,6.30
2018-11-06T02:13:02.412Z,6.30
2018-11-06T02:15:30.953Z,6.20
2018-11-06T02:17:59.501Z,6.20
2018-11-06T02:20:28.037Z,6.20
2018-11-06T02:22:56.590Z,6.10
2018-11-06T02:25:25.138Z,6.10
2018-11-06T02:27:53.717Z,6.10
2018-11-06T02:30:22.273Z,6.00
2018-11-06T02:32:50.901Z,6.00
2018-11-06T02:35:19.466Z,6.10
2018-11-06T02:37:48.034Z,6.10
2018-11-06T02:40:16.957Z,6.00
2018-11-06T02:42:45.530Z,6.00
2018-11-06T02:45:14.733Z,5.90
2018-11-06T02:47:43.746Z,5.90
2018-11-06T02:50:13.129Z,5.80
2018-11-06T02:52:42.976Z,5.80
2018-11-06T02:55:11.843Z,5.80
2018-11-06T02:57:40.864Z,5.80
2018-11-06T03:00:12.337Z,5.80
2018-11-06T03:02:40.908Z,5.80
2018-11-06T03:05:10.170Z,5.80
2018-11-06T03:07:38.774Z,5.90
2018-11-06T03:10:08.320Z,5.90
2018-11-06T03:12:36.881Z,6.00
2018-11-06T03:15:06.358Z,6.00
2018-11-06T03:17:34.889Z,6.10
2018-11-06T03:20:03.432Z,6.10
2018-11-06T03:22:31.961Z,6.10
2018-11-06T03:25:00.469Z,6.10
2018-11-06T03:27:29.006Z,6.00
2018-11-06T03:29:57.522Z,5.90
2018-11-06T03:32:26.065Z,5.90
2018-11-06T03:34:54.587Z,5.90
2018-11-06T03:37:23.133Z,6.00
2018-11-06T03:39:51.636Z,6.00
2018-11-06T03:42:20.208Z,6.00
2018-11-06T03:44:48.730Z,6.00
2018-11-06T03:47:17.262Z,6.00
2018-11-06T03:49:45.805Z,5.90
2018-11-06T03:52:14.328Z,5.80
2018-11-06T03:54:43.114Z,5.80
2018-11-06T03:57:11.629Z,5.80
2018-11-06T03:59:40.161Z,6.00
2018-11-06T04:02:08.670Z,6.10
2018-11-06T04:04:37.205Z,6.10
2018-11-06T04:07:06.517Z,6.10
2018-11-06T04:09:35.049Z,6.10
2018-11-06T04:12:03.596Z,6.00
2018-11-06T04:14:32.162Z,6.10
2018-11-06T04:17:00.669Z,6.10
2018-11-06T04:19:29.286Z,6.10
2018-11-06T04:21:57.779Z,6.10
2018-11-06T04:24:26.300Z,6.10
2018-11-06T04:26:54.804Z,6.20
2018-11-06T04:29:23.345Z,6.10
2018-11-06T04:31:51.847Z,6.10
2018-11-06T04:34:20.377Z,6.10
2018-11-06T04:36:48.878Z,6.10
2018-11-06T04:39:17.426Z,6.10
2018-11-06T04:41:45.928Z,6.30
2018-11-06T04:44:14.442Z,6.40
2018-11-06T04:46:42.962Z,6.40
2018-11-06T04:49:11.664Z,6.40
2018-11-06T04:51:40.171Z,6.40
2018-11-06T04:54:08.706Z,6.50
2018-11-06T04:56:37.230Z,6.50
2018-11-06T04:59:05.790Z,6.50
2018-11-06T05:01:34.289Z,6.50
2018-11-06T05:04:02.825Z,6.60
2018-11-06T05:06:31.329Z,6.50
2018-11-06T05:08:59.882Z,6.60
2018-11-06T05:11:28.412Z,6.70
2018-11-06T05:13:57.015Z,6.60
2018-11-06T05:16:25.505Z,6.60
2018-11-06T05:18:54.022Z,6.60
2018-11-06T05:21:22.502Z,6.70
2018-11-06T05:23:51.016Z,6.70
2018-11-06T05:26:19.604Z,6.80
2018-11-06T05:28:48.116Z,6.80
2018-11-06T05:31:16.610Z,6.90
2018-11-06T05:33:45.123Z,6.80
2018-11-06T05:36:13.621Z,6.90
2018-11-06T05:38:42.125Z,6.90
2018-11-06T05:41:10.651Z,6.90
2018-11-06T05:43:39.465Z,7.10
2018-11-06T05:46:07.996Z,7.20
2018-11-06T05:48:36.502Z,7.20
2018-11-06T05:51:05.309Z,7.30
2018-11-06T05:53:33.788Z,7.40
2018-11-06T05:56:02.342Z,7.60
2018-11-06T05:58:30.843Z,7.80
2018-11-06T06:01:01.050Z,7.90
2018-11-06T06:03:29.551Z,8.00
2018-11-06T06:05:58.091Z,8.00
2018-11-06T06:08:26.594Z,8.10
2018-11-06T06:10:56.066Z,8.10
2018-11-06T06:13:24.600Z,8.20
2018-11-06T06:15:53.197Z,8.30
2018-11-06T06:18:21.905Z,8.30
2018-11-06T06:20:50.488Z,8.30
2018-11-06T06:23:19.022Z,8.30
2018-11-06T06:25:47.565Z,8.30
2018-11-06T06:28:16.087Z,8.30
2018-11-06T06:30:44.612Z,8.30
2018-11-06T06:33:13.131Z,8.20
2018-11-06T06:35:41.677Z,8.20
2018-11-06T06:38:10.200Z,8.20
2018-11-06T06:40:38.806Z,8.20
2018-11-06T06:43:07.316Z,8.30
2018-11-06T06:45:42.528Z,8.40
2018-11-06T06:48:13.930Z,8.50
2018-11-06T06:50:45.527Z,8.50
2018-11-06T06:53:17.655Z,8.40
2018-11-06T06:55:52.066Z,8.40
2018-11-06T06:58:25.428Z,8.50
2018-11-06T07:01:00.253Z,8.40
2018-11-06T07:03:33.428Z,8.50
2018-11-06T07:06:06.340Z,8.60
2018-11-06T07:08:34.922Z,8.70
2018-11-06T07:11:03.873Z,8.70
2018-11-06T07:13:33.138Z,8.70
2018-11-06T07:16:01.665Z,8.60
2018-11-06T07:18:30.232Z,8.60
2018-11-06T07:20:58.928Z,8.70
2018-11-06T07:23:27.512Z,8.80
2018-11-06T07:25:56.059Z,8.80
2018-11-06T07:28:24.653Z,8.90
2018-11-06T07:30:53.206Z,9.00
2018-11-06T07:33:21.799Z,9.00
2018-11-06T07:35:50.419Z,9.10
2018-11-06T07:38:18.883Z,9.30
2018-11-06T07:40:51.867Z,9.40
2018-11-06T07:43:20.565Z,9.40
2018-11-06T07:45:49.159Z,9.40
2018-11-06T07:48:17.698Z,9.50
2018-11-06T07:50:46.294Z,9.50
2018-11-06T07:53:14.865Z,9.50
2018-11-06T07:55:43.598Z,9.60
2018-11-06T07:58:12.149Z,9.70
2018-11-06T08:00:40.884Z,9.70
2018-11-06T08:03:12.914Z,9.70
2018-11-06T08:05:41.562Z,9.80
2018-11-06T08:08:10.096Z,9.80
2018-11-06T08:10:38.645Z,9.80
2018-11-06T08:13:08.291Z,9.80
2018-11-06T08:15:36.789Z,9.70
2018-11-06T08:18:05.544Z,9.70
2018-11-06T08:20:35.150Z,9.80
2018-11-06T08:23:08.850Z,9.80
2018-11-06T08:25:37.521Z,9.70
2018-11-06T08:28:06.598Z,9.70
2018-11-06T08:30:35.228Z,9.80
2018-11-06T08:33:03.688Z,9.70
2018-11-06T08:35:32.258Z,9.60
2018-11-06T08:38:00.858Z,9.50
2018-11-06T08:40:29.393Z,9.40
2018-11-06T08:42:57.944Z,9.40
2018-11-06T08:45:26.453Z,9.50
2018-11-06T08:47:55.128Z,9.50
2018-11-06T08:50:23.642Z,9.70
2018-11-06T08:52:55.063Z,9.70
2018-11-06T08:55:23.616Z,9.80
2018-11-06T08:57:52.271Z,9.80
2018-11-06T09:00:29.859Z,9.90
2018-11-06T09:02:58.975Z,10.00
2018-11-06T09:05:27.482Z,10.00
2018-11-06T09:07:56.010Z,10.10
2018-11-06T09:10:24.527Z,10.20
2018-11-06T09:12:53.104Z,10.30
2018-11-06T09:15:21.819Z,10.30
2018-11-06T09:17:50.351Z,10.50
2018-11-06T09:20:18.893Z,10.70
2018-11-06T09:22:47.426Z,10.80
2018-11-06T09:25:17.437Z,10.90
2018-11-06T09:27:45.976Z,11.10
2018-11-06T09:30:16.670Z,11.20
2018-11-06T09:32:45.344Z,11.20
2018-11-06T09:35:14.300Z,11.40
2018-11-06T09:37:43.555Z,11.40
2018-11-06T09:40:14.705Z,11.60
2018-11-06T09:42:43.210Z,11.70
2018-11-06T09:45:12.778Z,11.80
2018-11-06T09:47:41.192Z,11.80
2018-11-06T09:50:12.297Z,12.00
2018-11-06T09:52:46.829Z,11.90
2018-11-06T09:55:16.357Z,12.00
2018-11-06T09:57:45.309Z,12.10
2018-11-06T10:00:15.857Z,12.20
2018-11-06T10:02:44.359Z,12.40
2018-11-06T10:05:13.840Z,12.40
2018-11-06T10:07:42.535Z,12.50
2018-11-06T10:10:19.253Z,12.40
2018-11-06T10:12:51.979Z,12.50
2018-11-06T10:15:26.144Z,12.50
2018-11-06T10:17:55.961Z,12.60
2018-11-06T10:20:24.569Z,12.60
2018-11-06T10:22:53.074Z,12.80
2018-11-06T10:25:22.378Z,12.80
2018-11-06T10:27:51.196Z,12.90
2018-11-06T10:30:20.579Z,12.80
2018-11-06T10:32:49.121Z,12.80
2018-11-06T10:35:17.761Z,12.70
2018-11-06T10:37:46.391Z,12.70
2018-11-06T10:40:18.646Z,12.50
2018-11-06T10:42:47.690Z,12.30
2018-11-06T10:45:16.727Z,12.30
2018-11-06T10:47:45.490Z,12.30
2018-11-06T10:50:14.696Z,12.40
2018-11-06T10:52:44.500Z,12.50
2018-11-06T10:55:13.180Z,12.70
2018-11-06T10:57:42.167Z,13.00
2018-11-06T11:00:17.340Z,12.90
2018-11-06T11:02:51.323Z,12.90
2018-11-06T11:05:21.032Z,12.80
2018-11-06T11:07:49.584Z,13.00
2018-11-06T11:10:18.218Z,13.10
2018-11-06T11:12:46.773Z,12.90
2018-11-06T11:15:15.403Z,12.70
2018-11-06T11:17:44.234Z,12.70
2018-11-06T11:20:14.298Z,12.90
2018-11-06T11:22:43.241Z,12.90
2018-11-06T11:25:13.202Z,13.00
2018-11-06T11:27:42.393Z,13.10
2018-11-06T11:30:13.042Z,13.10
2018-11-06T11:32:43.146Z,13.20
2018-11-06T11:35:12.478Z,13.20
2018-11-06T11:37:41.291Z,13.30
2018-11-06T11:40:11.282Z,13.30
2018-11-06T11:42:39.834Z,13.40
2018-11-06T11:45:11.761Z,13.40
2018-11-06T11:47:41.134Z,13.30
2018-11-06T11:50:11.273Z,13.30
2018-11-06T11:52:40.090Z,13.50
2018-11-06T11:55:10.142Z,13.40
2018-11-06T11:57:39.107Z,13.40
2018-11-06T12:00:09.838Z,13.50
2018-11-06T12:02:38.393Z,13.60
2018-11-06T12:05:09.885Z,13.70
2018-11-06T12:07:38.541Z,13.70
2018-11-06T12:10:08.531Z,13.80
2018-11-06T12:12:37.112Z,13.80
2018-11-06T12:15:09.432Z,14.00
2018-11-06T12:17:38.178Z,14.00
2018-11-06T12:20:06.827Z,13.70
2018-11-06T12:22:35.412Z,13.80
2018-11-06T12:25:04.165Z,13.80
2018-11-06T12:27:32.596Z,13.90
2018-11-06T12:30:01.148Z,14.00
2018-11-06T12:32:29.749Z,14.00
2018-11-06T12:34:58.233Z,14.00
2018-11-06T12:37:26.820Z,14.00
2018-11-06T12:39:55.326Z,14.00
2018-11-06T12:42:24.081Z,14.00
2018-11-06T12:44:52.683Z,13.90
2018-11-06T12:47:21.481Z,13.90
2018-11-06T12:49:50.029Z,13.90
2018-11-06T12:52:18.612Z,14.00
2018-11-06T12:54:47.228Z,14.00
2018-11-06T12:57:15.741Z,14.00
2018-11-06T12:59:44.301Z,14.00
2018-11-06T13:02:14.180Z,14.00
2018-11-06T13:04:42.737Z,14.10
2018-11-06T13:07:13.017Z,14.10
2018-11-06T13:09:42.316Z,14.20
2018-11-06T13:12:10.886Z,14.30
2018-11-06T13:14:39.456Z,14.30
2018-11-06T13:17:10.268Z,14.30
2018-11-06T13:19:38.657Z,14.30
2018-11-06T13:22:07.710Z,14.40
2018-11-06T13:24:36.229Z,14.30
2018-11-06T13:27:05.094Z,14.30
2018-11-06T13:29:33.718Z,14.30
2018-11-06T13:32:02.249Z,14.40
2018-11-06T13:34:30.821Z,14.40
2018-11-06T13:36:59.366Z,14.40
2018-11-06T13:39:28.199Z,14.40
2018-11-06T13:41:56.932Z,14.30
2018-11-06T13:44:25.969Z,14.40
2018-11-06T13:46:54.097Z,14.50
2018-11-06T13:49:23.454Z,14.40
2018-11-06T13:51:52.029Z,14.40
2018-11-06T13:54:21.543Z,14.40
2018-11-06T13:56:50.249Z,14.40
2018-11-06T13:59:18.802Z,14.30
2018-11-06T14:01:47.324Z,14.20
2018-11-06T14:04:15.977Z,14.30
2018-11-06T14:06:44.529Z,14.30
2018-11-06T14:09:13.020Z,14.40
2018-11-06T14:11:41.614Z,14.20
2018-11-06T14:14:10.216Z,14.20
2018-11-06T14:16:38.945Z,14.20
2018-11-06T14:19:07.693Z,14.10
2018-11-06T14:21:36.389Z,14.20
2018-11-06T14:24:05.173Z,14.20
2018-11-06T14:26:33.694Z,14.20
2018-11-06T14:29:02.316Z,14.00
2018-11-06T14:31:30.923Z,14.20
2018-11-06T14:33:59.490Z,14.10
2018-11-06T14:36:28.088Z,14.10
2018-11-06T14:38:56.738Z,14.10
2018-11-06T14:41:25.259Z,14.10
2018-11-06T14:43:53.948Z,14.10
2018-11-06T14:46:22.502Z,14.00
2018-11-06T14:48:51.130Z,14.10
2018-11-06T14:51:19.564Z,14.00
2018-11-06T14:53:48.196Z,13.90
2018-11-06T14:56:16.849Z,13.90
2018-11-06T14:58:45.398Z,13.80
2018-11-06T15:01:13.980Z,13.80
2018-11-06T15:03:43.182Z,13.80
2018-11-06T15:06:11.730Z,13.70
2018-11-06T15:08:40.334Z,13.70
2018-11-06T15:11:10.297Z,13.50
2018-11-06T15:13:38.857Z,13.40
2018-11-06T15:16:07.370Z,13.30
2018-11-06T15:18:35.930Z,13.20
2018-11-06T15:21:04.449Z,13.20
2018-11-06T15:23:32.984Z,13.20
2018-11-06T15:26:01.478Z,13.20
2018-11-06T15:28:30.011Z,13.20
2018-11-06T15:30:58.682Z,13.20
2018-11-06T15:33:27.218Z,13.20
2018-11-06T15:35:55.706Z,13.10
2018-11-06T15:38:24.217Z,13.10
2018-11-06T15:40:52.747Z,12.90
2018-11-06T15:43:21.250Z,12.90
2018-11-06T15:45:50.443Z,12.80
2018-11-06T15:48:18.938Z,12.70
2018-11-06T15:50:47.462Z,12.80
2018-11-06T15:53:16.054Z,12.80
2018-11-06T15:55:44.565Z,12.60
2018-11-06T15:58:13.121Z,12.50
2018-11-06T16:00:41.767Z,12.30
2018-11-06T16:03:10.240Z,12.20
2018-11-06T16:05:38.758Z,12.20
2018-11-06T16:08:07.325Z,12.20
2018-11-06T16:10:35.838Z,12.10
2018-11-06T16:13:04.615Z,12.00
2018-11-06T16:15:33.465Z,12.00
2018-11-06T16:18:01.937Z,12.00
2018-11-06T16:20:30.468Z,11.80
2018-11-06T16:22:58.981Z,11.80
2018-11-06T16:25:27.497Z,11.60
2018-11-06T16:27:55.991Z,11.60
2018-11-06T16:30:24.515Z,11.60
2018-11-06T16:32:53.048Z,11.60
2018-11-06T16:35:22.827Z,11.40
2018-11-06T16:37:51.702Z,11.30
2018-11-06T16:40:20.520Z,11.20
2018-11-06T16:42:49.380Z,11.10
2018-11-06T16:45:20.382Z,11.10
2018-11-06T16:47:49.830Z,11.00
2018-11-06T16:50:19.028Z,10.90
2018-11-06T16:52:47.772Z,10.90
2018-11-06T16:55:16.826Z,10.80
2018-11-06T16:57:45.788Z,10.80
2018-11-06T17:00:19.611Z,10.80
2018-11-06T17:02:47.956Z,10.70
2018-11-06T17:05:16.507Z,10.60
2018-11-06T17:07:45.352Z,10.60
2018-11-06T17:10:14.882Z,10.50
2018-11-06T17:12:43.405Z,10.60
2018-11-06T17:15:17.482Z,10.60
2018-11-06T17:17:46.969Z,10.70
2018-11-06T17:20:15.980Z,10.60
2018-11-06T17:22:44.481Z,10.50
2018-11-06T17:25:14.399Z,10.50
2018-11-06T17:27:42.916Z,10.60
2018-11-06T17:30:13.461Z,10.60
2018-11-06T17:32:42.314Z,10.60
2018-11-06T17:35:12.506Z,10.70
2018-11-06T17:37:41.377Z,10.70
2018-11-06T17:40:18.445Z,10.60
2018-11-06T17:42:47.052Z,10.50
2018-11-06T17:45:17.961Z,10.50
2018-11-06T17:47:46.417Z,10.50
2018-11-06T17:50:15.786Z,10.50
2018-11-06T17:52:44.493Z,10.50
2018-11-06T17:55:14.449Z,10.50
2018-11-06T17:57:43.101Z,10.50
2018-11-06T18:00:17.086Z,10.50
2018-11-06T18:02:45.786Z,10.40
2018-11-06T18:05:15.381Z,10.40
2018-11-06T18:07:44.208Z,10.40
2018-11-06T18:10:14.984Z,10.40
2018-11-06T18:12:44.003Z,10.40
2018-11-06T18:15:12.677Z,10.50
2018-11-06T18:17:41.813Z,10.40
2018-11-06T18:20:11.776Z,10.50
2018-11-06T18:22:41.114Z,10.40
2018-11-06T18:25:10.546Z,10.40
2018-11-06T18:27:39.327Z,10.40
2018-11-06T18:30:12.379Z,10.40
2018-11-06T18:32:40.921Z,10.40
2018-11-06T18:35:10.872Z,10.30
2018-11-06T18:37:40.014Z,10.20
2018-11-06T18:40:11.835Z,10.20
2018-11-06T18:42:40.906Z,10.10
2018-11-06T18:45:09.417Z,10.20
2018-11-06T18:47:37.986Z,10.20
2018-11-06T18:50:08.307Z,10.20
2018-11-06T18:52:37.025Z,10.10
2018-11-06T18:55:06.244Z,10.10
2018-11-06T18:57:35.031Z,10.10
2018-11-06T19:00:03.986Z,10.10
2018-11-06T19:02:32.517Z,10.00
2018-11-06T19:05:01.010Z,10.00
2018-11-06T19:07:29.561Z,9.90
2018-11-06T19:09:58.751Z,9.80
2018-11-06T19:12:27.369Z,9.70
2018-11-06T19:14:55.878Z,9.70
2018-11-06T19:17:24.402Z,9.70
2018-11-06T19:19:52.934Z,9.60
2018-11-06T19:22:21.573Z,9.70
2018-11-06T19:24:50.088Z,9.70
2018-11-06T19:27:18.617Z,9.60
2018-11-06T19:29:47.113Z,9.60
2018-11-06T19:32:15.649Z,9.70
2018-11-06T19:34:44.155Z,9.70
2018-11-06T19:37:12.697Z,9.70
2018-11-06T19:39:41.180Z,9.60
2018-11-06T19:42:09.718Z,9.50
2018-11-06T19:44:38.234Z,9.50
2018-11-06T19:47:06.810Z,9.50
2018-11-06T19:49:35.321Z,9.50
2018-11-06T19:52:03.841Z,9.40
2018-11-06T19:54:32.386Z,9.30
2018-11-06T19:57:00.894Z,9.30
2018-11-06T19:59:29.491Z,9.30
2018-11-06T20:01:57.995Z,9.30
2018-11-06T20:04:26.808Z,9.20
2018-11-06T20:06:55.323Z,9.30
2018-11-06T20:09:24.888Z,9.20
2018-11-06T20:11:53.645Z,9.30
2018-11-06T20:14:22.201Z,9.30
2018-11-06T20:16:50.790Z,9.20
2018-11-06T20:19:19.521Z,9.10
2018-11-06T20:21:48.294Z,9.10
2018-11-06T20:24:17.145Z,9.00
2018-11-06T20:26:45.767Z,9.10
2018-11-06T20:29:14.286Z,9.10
2018-11-06T20:31:43.145Z,9.10
2018-11-06T20:34:11.699Z,9.00
2018-11-06T20:36:40.345Z,9.00
2018-11-06T20:39:10.594Z,9.00
2018-11-06T20:41:39.122Z,9.10
2018-11-06T20:44:07.677Z,9.00
2018-11-06T20:46:36.268Z,9.10
2018-11-06T20:49:05.216Z,9.10
2018-11-06T20:51:33.652Z,9.00
2018-11-06T20:54:02.185Z,9.00
2018-11-06T20:56:30.714Z,8.90
2018-11-06T20:58:59.262Z,8.90
2018-11-06T21:01:27.773Z,8.90
2018-11-06T21:03:56.337Z,8.90
2018-11-06T21:06:24.834Z,9.00
2018-11-06T21:08:53.378Z,8.90
2018-11-06T21:11:21.895Z,8.80
2018-11-06T21:13:50.490Z,8.80
2018-11-06T21:16:19.011Z,8.80
2018-11-06T21:18:47.541Z,8.80
2018-11-06T21:21:16.045Z,8.70
2018-11-06T21:23:44.571Z,8.70
2018-11-06T21:26:13.199Z,8.60
2018-11-06T21:28:41.624Z,8.60
2018-11-06T21:31:10.135Z,8.60
2018-11-06T21:33:38.744Z,8.80
2018-11-06T21:36:07.262Z,8.90
2018-11-06T21:38:35.798Z,9.00
2018-11-06T21:41:04.313Z,9.00
2018-11-06T21:43:32.817Z,9.10
2018-11-06T21:46:01.349Z,9.10
2018-11-06T21:48:29.897Z,8.90
2018-11-06T21:50:58.425Z,9.00
2018-11-06T21:53:26.925Z,9.10
2018-11-06T21:55:55.454Z,9.10
2018-11-06T21:58:24.108Z,9.00
2018-11-06T22:00:52.686Z,9.10
2018-11-06T22:03:21.162Z,9.00
2018-11-06T22:05:49.705Z,9.00
2018-11-06T22:08:18.214Z,9.00
2018-11-06T22:10:46.758Z,9.00
2018-11-06T22:13:15.282Z,9.10
2018-11-06T22:15:43.807Z,9.10
2018-11-06T22:18:12.303Z,9.10
2018-11-06T22:20:40.830Z,9.10
2018-11-06T22:23:09.333Z,9.20
2018-11-06T22:25:37.857Z,9.20
2018-11-06T22:28:06.422Z,9.20
2018-11-06T22:30:34.973Z,9.20
2018-11-06T22:33:03.525Z,9.20
2018-11-06T22:35:32.017Z,9.30
2018-11-06T22:38:00.572Z,9.30
2018-11-06T22:40:29.062Z,9.40
2018-11-06T22:42:57.642Z,9.30
2018-11-06T22:45:26.189Z,9.30
2018-11-06T22:47:54.710Z,9.20
2018-11-06T22:50:23.258Z,9.20
2018-11-06T22:52:51.754Z,9.30
2018-11-06T22:55:20.297Z,9.30
2018-11-06T22:57:48.789Z,9.30
2018-11-06T23:00:24.385Z,9.30
2018-11-06T23:02:52.908Z,9.30
2018-11-06T23:05:21.448Z,9.40
2018-11-06T23:07:55.304Z,9.40
2018-11-06T23:10:23.889Z,9.30
2018-11-06T23:12:52.452Z,9.30
2018-11-06T23:15:20.993Z,9.20
2018-11-06T23:17:49.553Z,9.20
2018-11-06T23:20:18.071Z,9.10
2018-11-06T23:22:46.602Z,9.10
2018-11-06T23:25:15.145Z,9.10
2018-11-06T23:27:43.702Z,9.00
2018-11-06T23:30:13.726Z,9.00
2018-11-06T23:32:42.436Z,8.90
2018-11-06T23:35:10.937Z,9.00
2018-11-06T23:37:40.011Z,9.00
2018-11-06T23:40:09.192Z,8.90
2018-11-06T23:42:37.741Z,8.90
2018-11-06T23:45:07.182Z,8.90
2018-11-06T23:47:35.741Z,8.90
2018-11-06T23:50:04.342Z,8.90
2018-11-06T23:52:32.874Z,8.90
2018-11-06T23:55:01.403Z,8.80
2018-11-06T23:57:30.425Z,8.80
2018-11-06T23:59:59.725Z,8.80
